sensor_id;sensor_type;location;lat;lon;timestamp;pressure;altitude;pressure_sealevel;temperature;humidity
75409;BME280;63979;55.644;37.734;2022-09-30T18:05:58;100138.88;;;16.09;72.34
75409;BME280;63979;55.644;37.734;2022-09-30T18:08:27;100138.09;;;15.97;73.09
75409;BME280;63979;55.644;37.734;2022-09-30T18:10:53;100138.72;;;15.89;73.63
75409;BME280;63979;55.644;37.734;2022-09-30T18:13:22;100150.75;;;15.85;73.87
75409;BME280;63979;55.644;37.734;2022-09-30T18:15:48;100163.56;;;15.72;74.48
75409;BME280;63979;55.644;37.734;2022-09-30T18:18:14;100151.13;;;15.49;75.80
75409;BME280;63979;55.644;37.734;2022-09-30T18:20:48;100153.06;;;15.58;75.57
75409;BME280;63979;55.644;37.734;2022-09-30T18:23:15;100144.78;;;15.50;75.79
75409;BME280;63979;55.644;37.734;2022-09-30T18:25:44;100143.66;;;15.52;75.62
75409;BME280;63979;55.644;37.734;2022-09-30T18:28:11;100156.97;;;15.54;75.73
75409;BME280;63979;55.644;37.734;2022-09-30T18:30:38;100159.59;;;15.44;76.27
75409;BME280;63979;55.644;37.734;2022-09-30T18:33:05;100139.81;;;15.34;76.11
75409;BME280;63979;55.644;37.734;2022-09-30T18:35:34;100164.63;;;15.38;76.87
75409;BME280;63979;55.644;37.734;2022-09-30T18:38:00;100154.59;;;15.40;76.79
75409;BME280;63979;55.644;37.734;2022-09-30T18:40:27;100159.38;;;15.36;77.20
75409;BME280;63979;55.644;37.734;2022-09-30T18:42:58;100162.66;;;15.40;77.06
75409;BME280;63979;55.644;37.734;2022-09-30T18:45:25;100161.88;;;15.28;77.68
75409;BME280;63979;55.644;37.734;2022-09-30T18:47:56;100133.66;;;15.11;77.66
75409;BME280;63979;55.644;37.734;2022-09-30T18:50:24;100174.56;;;15.26;77.98
75409;BME280;63979;55.644;37.734;2022-09-30T18:52:54;100169.06;;;15.27;78.12
75409;BME280;63979;55.644;37.734;2022-09-30T18:59:32;100174.94;;;15.33;77.65
75409;BME280;63979;55.644;37.734;2022-09-30T19:04:34;100162.03;;;15.04;78.65
75409;BME280;63979;55.644;37.734;2022-09-30T19:09:36;100180.91;;;15.36;77.64
75409;BME280;63979;55.644;37.734;2022-09-30T19:14:40;100179.22;;;15.24;78.32
75409;BME280;63979;55.644;37.734;2022-09-30T19:19:45;100179.34;;;15.22;78.19
75409;BME280;63979;55.644;37.734;2022-09-30T19:24:47;100191.19;;;15.20;78.87
75409;BME280;63979;55.644;37.734;2022-09-30T19:29:48;100192.66;;;15.24;78.55
75409;BME280;63979;55.644;37.734;2022-09-30T19:34:52;100195.13;;;15.16;79.14
75409;BME280;63979;55.644;37.734;2022-09-30T19:39:55;100201.09;;;15.19;78.95
75409;BME280;63979;55.644;37.734;2022-09-30T19:44:57;100197.44;;;15.20;78.46
75409;BME280;63979;55.644;37.734;2022-09-30T19:49:59;100204.28;;;15.13;79.20
75409;BME280;63979;55.644;37.734;2022-09-30T19:55:01;100206.09;;;15.24;78.49
75409;BME280;63979;55.644;37.734;2022-09-30T20:00:03;100211.38;;;15.14;79.31
75409;BME280;63979;55.644;37.734;2022-09-30T20:05:06;100192.84;;;15.00;79.59
75409;BME280;63979;55.644;37.734;2022-09-30T20:10:08;100208.25;;;14.98;79.95
75409;BME280;63979;55.644;37.734;2022-09-30T20:15:10;100220.69;;;14.99;80.28
75409;BME280;63979;55.644;37.734;2022-09-30T20:20:30;100223.38;;;15.10;79.66
75409;BME280;63979;55.644;37.734;2022-09-30T20:25:35;100212.13;;;15.16;79.20
75409;BME280;63979;55.644;37.734;2022-09-30T20:30:40;100197.69;;;15.17;79.07
75409;BME280;63979;55.644;37.734;2022-09-30T20:35:51;100212.13;;;15.16;79.36
75409;BME280;63979;55.644;37.734;2022-09-30T20:40:56;100210.16;;;15.29;78.88
75409;BME280;63979;55.644;37.734;2022-09-30T20:46:00;100211.09;;;15.40;78.66
75409;BME280;63979;55.644;37.734;2022-09-30T20:51:10;100215.25;;;15.44;78.02
75409;BME280;63979;55.644;37.734;2022-09-30T20:56:13;100192.38;;;15.38;77.87
75409;BME280;63979;55.644;37.734;2022-09-30T21:01:17;100208.38;;;15.51;77.42
75409;BME280;63979;55.644;37.734;2022-09-30T21:06:29;100213.47;;;15.54;77.56
75409;BME280;63979;55.644;37.734;2022-09-30T21:11:30;100217.19;;;15.42;78.37
75409;BME280;63979;55.644;37.734;2022-09-30T21:16:32;100224.16;;;15.44;78.29
75409;BME280;63979;55.644;37.734;2022-09-30T21:21:33;100216.72;;;15.37;78.64
75409;BME280;63979;55.644;37.734;2022-09-30T21:26:35;100216.44;;;15.51;78.09
75409;BME280;63979;55.644;37.734;2022-09-30T21:31:36;100219.59;;;15.56;77.59
75409;BME280;63979;55.644;37.734;2022-09-30T21:36:38;100214.22;;;15.56;77.44
75409;BME280;63979;55.644;37.734;2022-09-30T21:41:40;100212.78;;;15.63;77.68
75409;BME280;63979;55.644;37.734;2022-09-30T21:46:43;100215.09;;;15.68;78.23
75409;BME280;63979;55.644;37.734;2022-09-30T21:51:46;100186.09;;;15.60;78.34
75409;BME280;63979;55.644;37.734;2022-09-30T21:56:48;100179.34;;;15.54;78.74
75409;BME280;63979;55.644;37.734;2022-09-30T22:01:49;100201.28;;;15.61;79.12
75409;BME280;63979;55.644;37.734;2022-09-30T22:06:52;100211.31;;;15.48;79.84
75409;BME280;63979;55.644;37.734;2022-09-30T22:11:54;100212.34;;;15.36;79.98
75409;BME280;63979;55.644;37.734;2022-09-30T22:16:55;100211.72;;;15.32;80.13
75409;BME280;63979;55.644;37.734;2022-09-30T22:21:57;100205.63;;;15.30;79.99
75409;BME280;63979;55.644;37.734;2022-09-30T22:26:59;100206.81;;;15.26;80.05
75409;BME280;63979;55.644;37.734;2022-09-30T22:32:00;100215.03;;;15.24;80.09
75409;BME280;63979;55.644;37.734;2022-09-30T22:37:02;100209.91;;;15.21;80.05
75409;BME280;63979;55.644;37.734;2022-09-30T22:42:22;100212.84;;;15.29;79.70
75409;BME280;63979;55.644;37.734;2022-09-30T22:47:24;100204.50;;;15.33;79.73
75409;BME280;63979;55.644;37.734;2022-09-30T22:52:25;100203.41;;;15.35;79.72
75409;BME280;63979;55.644;37.734;2022-09-30T22:57:27;100200.38;;;15.28;79.65
75409;BME280;63979;55.644;37.734;2022-09-30T23:02:29;100205.97;;;15.25;79.87
75409;BME280;63979;55.644;37.734;2022-09-30T23:07:30;100199.88;;;15.23;79.98
75409;BME280;63979;55.644;37.734;2022-09-30T23:12:31;100206.59;;;15.18;80.11
75409;BME280;63979;55.644;37.734;2022-09-30T23:17:34;100206.47;;;15.19;80.16
75409;BME280;63979;55.644;37.734;2022-09-30T23:22:36;100212.34;;;15.24;80.23
75409;BME280;63979;55.644;37.734;2022-09-30T23:27:37;100220.41;;;15.24;80.25
75409;BME280;63979;55.644;37.734;2022-09-30T23:32:38;100214.31;;;15.11;80.45
75409;BME280;63979;55.644;37.734;2022-09-30T23:37:40;100216.88;;;15.13;81.01
75409;BME280;63979;55.644;37.734;2022-09-30T23:42:42;100200.16;;;15.09;80.63
75409;BME280;63979;55.644;37.734;2022-09-30T23:47:45;100184.53;;;15.03;80.83
75409;BME280;63979;55.644;37.734;2022-09-30T23:52:48;100197.44;;;15.20;80.43
75409;BME280;63979;55.644;37.734;2022-09-30T23:57:50;100185.94;;;15.18;80.37
